Reiles Acres, North Dakota
Current Conditions -  °F | °C
As of 3:53 AM on Saturday 22 Nov 2014 (Local Time) from KFAR Reporting Station
Clear Clear  
Wind Chill: 18°   Ceiling: Unl
Heat Index: 27°   Visibility: 10mi
Dew Point: 22°   Wind: 9mph
Humidity: 81%   Direction: 170°S
Pressure: 29.66"   Gusts: NA
Location:  46.9259°N, 96.8507°W
Report Text: KFAR 220953Z 17008KT 10SM CLR M03/M06 A2966 RMK AO2 SLP056 T10281056
Loading
Personal Weather Stations






























Interactive Weather Map New forecast layout! Learn more

10-Day Weather Forecast

Advertisements
Track Severe Weather on mobile